sensor_id;sensor_type;location;lat;lon;timestamp;P1;durP1;ratioP1;P2;durP2;ratioP2
63203;SDS011;49297;43.210;27.914;2022-11-15T00:01:42;11.13;;;10.02;;
63203;SDS011;49297;43.210;27.914;2022-11-15T00:04:09;11.23;;;10.15;;
63203;SDS011;49297;43.210;27.914;2022-11-15T00:06:35;8.07;;;7.07;;
63203;SDS011;49297;43.210;27.914;2022-11-15T00:09:01;11.05;;;9.90;;
63203;SDS011;49297;43.210;27.914;2022-11-15T00:11:28;7.65;;;6.90;;
63203;SDS011;49297;43.210;27.914;2022-11-15T00:13:55;10.15;;;9.15;;
63203;SDS011;49297;43.210;27.914;2022-11-15T00:16:22;10.60;;;9.50;;
63203;SDS011;49297;43.210;27.914;2022-11-15T00:18:48;9.35;;;8.45;;
63203;SDS011;49297;43.210;27.914;2022-11-15T00:21:14;9.00;;;8.10;;
63203;SDS011;49297;43.210;27.914;2022-11-15T00:23:40;11.20;;;10.23;;
63203;SDS011;49297;43.210;27.914;2022-11-15T00:26:06;9.95;;;8.90;;
63203;SDS011;49297;43.210;27.914;2022-11-15T00:28:36;6.72;;;5.05;;
63203;SDS011;49297;43.210;27.914;2022-11-15T00:31:03;7.65;;;6.88;;
63203;SDS011;49297;43.210;27.914;2022-11-15T00:33:30;8.02;;;7.28;;
63203;SDS011;49297;43.210;27.914;2022-11-15T00:36:00;7.00;;;6.32;;
63203;SDS011;49297;43.210;27.914;2022-11-15T00:40:57;6.38;;;5.75;;
63203;SDS011;49297;43.210;27.914;2022-11-15T00:43:23;8.13;;;6.72;;
63203;SDS011;49297;43.210;27.914;2022-11-15T00:45:48;7.93;;;6.10;;
63203;SDS011;49297;43.210;27.914;2022-11-15T00:48:14;6.45;;;5.85;;
63203;SDS011;49297;43.210;27.914;2022-11-15T00:50:40;6.22;;;5.40;;
63203;SDS011;49297;43.210;27.914;2022-11-15T00:53:06;7.63;;;6.82;;
63203;SDS011;49297;43.210;27.914;2022-11-15T00:55:32;5.90;;;5.30;;
63203;SDS011;49297;43.210;27.914;2022-11-15T00:57:57;7.53;;;6.80;;
63203;SDS011;49297;43.210;27.914;2022-11-15T01:00:23;5.57;;;5.07;;
63203;SDS011;49297;43.210;27.914;2022-11-15T01:02:49;6.85;;;6.25;;
63203;SDS011;49297;43.210;27.914;2022-11-15T01:05:15;9.48;;;8.52;;
63203;SDS011;49297;43.210;27.914;2022-11-15T01:07:41;8.65;;;7.38;;
63203;SDS011;49297;43.210;27.914;2022-11-15T01:10:06;8.65;;;7.80;;
63203;SDS011;49297;43.210;27.914;2022-11-15T01:12:33;8.18;;;7.38;;
63203;SDS011;49297;43.210;27.914;2022-11-15T01:14:58;9.43;;;7.28;;
63203;SDS011;49297;43.210;27.914;2022-11-15T01:17:24;10.50;;;9.50;;
63203;SDS011;49297;43.210;27.914;2022-11-15T01:19:50;10.05;;;9.05;;
63203;SDS011;49297;43.210;27.914;2022-11-15T01:22:16;9.88;;;8.77;;
63203;SDS011;49297;43.210;27.914;2022-11-15T01:24:42;9.52;;;8.35;;
63203;SDS011;49297;43.210;27.914;2022-11-15T01:27:08;9.77;;;8.88;;
63203;SDS011;49297;43.210;27.914;2022-11-15T01:29:34;10.25;;;9.35;;
63203;SDS011;49297;43.210;27.914;2022-11-15T01:32:00;14.45;;;6.97;;
63203;SDS011;49297;43.210;27.914;2022-11-15T01:34:26;8.18;;;7.20;;
63203;SDS011;49297;43.210;27.914;2022-11-15T01:36:52;6.07;;;5.45;;
63203;SDS011;49297;43.210;27.914;2022-11-15T01:39:17;8.43;;;6.88;;
63203;SDS011;49297;43.210;27.914;2022-11-15T01:41:43;5.07;;;4.57;;
63203;SDS011;49297;43.210;27.914;2022-11-15T01:46:57;6.28;;;4.90;;
63203;SDS011;49297;43.210;27.914;2022-11-15T01:49:25;6.75;;;5.40;;
63203;SDS011;49297;43.210;27.914;2022-11-15T01:51:55;5.30;;;4.80;;
63203;SDS011;49297;43.210;27.914;2022-11-15T01:54:21;6.35;;;5.65;;
63203;SDS011;49297;43.210;27.914;2022-11-15T01:56:51;15.18;;;5.45;;
63203;SDS011;49297;43.210;27.914;2022-11-15T01:59:30;4.65;;;4.20;;
63203;SDS011;49297;43.210;27.914;2022-11-15T02:01:56;6.53;;;5.93;;
63203;SDS011;49297;43.210;27.914;2022-11-15T02:04:24;3.72;;;3.42;;
63203;SDS011;49297;43.210;27.914;2022-11-15T02:06:53;6.88;;;6.28;;
63203;SDS011;49297;43.210;27.914;2022-11-15T02:09:19;7.07;;;6.35;;
63203;SDS011;49297;43.210;27.914;2022-11-15T02:11:45;5.30;;;4.80;;
63203;SDS011;49297;43.210;27.914;2022-11-15T02:14:12;6.25;;;5.53;;
63203;SDS011;49297;43.210;27.914;2022-11-15T02:16:58;6.38;;;5.82;;
63203;SDS011;49297;43.210;27.914;2022-11-15T02:30:42;3.85;;;3.55;;
63203;SDS011;49297;43.210;27.914;2022-11-15T02:38:40;4.75;;;4.30;;
63203;SDS011;49297;43.210;27.914;2022-11-15T02:41:20;4.78;;;4.07;;
63203;SDS011;49297;43.210;27.914;2022-11-15T02:46:30;4.25;;;3.78;;
63203;SDS011;49297;43.210;27.914;2022-11-15T02:49:21;5.32;;;3.92;;
63203;SDS011;49297;43.210;27.914;2022-11-15T02:51:51;6.88;;;5.88;;
63203;SDS011;49297;43.210;27.914;2022-11-15T02:54:20;5.50;;;4.05;;
63203;SDS011;49297;43.210;27.914;2022-11-15T02:56:48;6.93;;;6.28;;
63203;SDS011;49297;43.210;27.914;2022-11-15T03:02:20;6.22;;;5.72;;
63203;SDS011;49297;43.210;27.914;2022-11-15T03:16:18;4.85;;;4.28;;
63203;SDS011;49297;43.210;27.914;2022-11-15T03:18:52;5.80;;;5.30;;
63203;SDS011;49297;43.210;27.914;2022-11-15T03:21:41;3.67;;;3.38;;
63203;SDS011;49297;43.210;27.914;2022-11-15T03:24:10;5.13;;;4.38;;
63203;SDS011;49297;43.210;27.914;2022-11-15T03:26:38;5.63;;;5.15;;
63203;SDS011;49297;43.210;27.914;2022-11-15T03:29:08;4.93;;;4.43;;
63203;SDS011;49297;43.210;27.914;2022-11-15T03:31:40;5.90;;;4.88;;
63203;SDS011;49297;43.210;27.914;2022-11-15T03:34:15;5.78;;;5.03;;
63203;SDS011;49297;43.210;27.914;2022-11-15T03:36:53;5.20;;;4.68;;
63203;SDS011;49297;43.210;27.914;2022-11-15T03:39:19;5.75;;;5.22;;
63203;SDS011;49297;43.210;27.914;2022-11-15T03:41:48;5.93;;;4.85;;
63203;SDS011;49297;43.210;27.914;2022-11-15T03:44:20;6.40;;;5.25;;
63203;SDS011;49297;43.210;27.914;2022-11-15T03:49:59;6.90;;;4.63;;
63203;SDS011;49297;43.210;27.914;2022-11-15T03:52:36;5.40;;;4.90;;
63203;SDS011;49297;43.210;27.914;2022-11-15T03:55:03;7.28;;;5.68;;
63203;SDS011;49297;43.210;27.914;2022-11-15T03:57:31;5.38;;;4.88;;
63203;SDS011;49297;43.210;27.914;2022-11-15T03:59:56;7.25;;;6.57;;
63203;SDS011;49297;43.210;27.914;2022-11-15T04:02:22;5.25;;;4.55;;
63203;SDS011;49297;43.210;27.914;2022-11-15T04:04:48;5.20;;;4.70;;
63203;SDS011;49297;43.210;27.914;2022-11-15T04:07:14;5.78;;;5.13;;
63203;SDS011;49297;43.210;27.914;2022-11-15T04:09:39;5.55;;;4.88;;
63203;SDS011;49297;43.210;27.914;2022-11-15T04:12:23;5.50;;;4.85;;
63203;SDS011;49297;43.210;27.914;2022-11-15T04:15:17;5.80;;;5.25;;
63203;SDS011;49297;43.210;27.914;2022-11-15T04:17:44;5.82;;;5.05;;
63203;SDS011;49297;43.210;27.914;2022-11-15T04:23:03;7.93;;;3.92;;
63203;SDS011;49297;43.210;27.914;2022-11-15T04:25:50;6.53;;;5.88;;
63203;SDS011;49297;43.210;27.914;2022-11-15T04:28:18;8.15;;;4.90;;
63203;SDS011;49297;43.210;27.914;2022-11-15T04:30:44;7.22;;;5.57;;
63203;SDS011;49297;43.210;27.914;2022-11-15T04:33:10;5.55;;;5.05;;
63203;SDS011;49297;43.210;27.914;2022-11-15T04:35:36;6.90;;;6.30;;
63203;SDS011;49297;43.210;27.914;2022-11-15T04:38:03;6.97;;;5.47;;
63203;SDS011;49297;43.210;27.914;2022-11-15T04:40:30;6.75;;;6.15;;
63203;SDS011;49297;43.210;27.914;2022-11-15T04:42:56;7.85;;;7.05;;
63203;SDS011;49297;43.210;27.914;2022-11-15T04:45:22;6.15;;;5.55;;
63203;SDS011;49297;43.210;27.914;2022-11-15T04:47:48;7.50;;;6.45;;
63203;SDS011;49297;43.210;27.914;2022-11-15T04:50:15;7.65;;;6.95;;
63203;SDS011;49297;43.210;27.914;2022-11-15T04:52:42;8.70;;;5.78;;
63203;SDS011;49297;43.210;27.914;2022-11-15T04:55:10;10.27;;;9.38;;
63203;SDS011;49297;43.210;27.914;2022-11-15T04:57:36;12.25;;;11.00;;
63203;SDS011;49297;43.210;27.914;2022-11-15T05:00:10;7.78;;;6.18;;
63203;SDS011;49297;43.210;27.914;2022-11-15T05:02:38;6.80;;;5.40;;
63203;SDS011;49297;43.210;27.914;2022-11-15T05:07:49;5.78;;;4.53;;
63203;SDS011;49297;43.210;27.914;2022-11-15T05:10:15;6.50;;;5.75;;
63203;SDS011;49297;43.210;27.914;2022-11-15T05:12:41;8.75;;;6.28;;
63203;SDS011;49297;43.210;27.914;2022-11-15T05:15:07;7.03;;;5.47;;
63203;SDS011;49297;43.210;27.914;2022-11-15T05:17:34;20.73;;;7.13;;
63203;SDS011;49297;43.210;27.914;2022-11-15T05:20:00;7.68;;;5.75;;
63203;SDS011;49297;43.210;27.914;2022-11-15T05:22:26;5.93;;;5.10;;
63203;SDS011;49297;43.210;27.914;2022-11-15T05:24:52;7.32;;;6.32;;
63203;SDS011;49297;43.210;27.914;2022-11-15T05:27:18;8.70;;;6.20;;
63203;SDS011;49297;43.210;27.914;2022-11-15T05:29:44;12.43;;;6.95;;
63203;SDS011;49297;43.210;27.914;2022-11-15T05:32:09;9.98;;;8.98;;
63203;SDS011;49297;43.210;27.914;2022-11-15T05:34:37;8.73;;;6.68;;
63203;SDS011;49297;43.210;27.914;2022-11-15T05:37:03;16.83;;;7.15;;
63203;SDS011;49297;43.210;27.914;2022-11-15T05:39:29;7.55;;;6.13;;
63203;SDS011;49297;43.210;27.914;2022-11-15T05:41:56;7.78;;;7.00;;
63203;SDS011;49297;43.210;27.914;2022-11-15T05:44:26;9.65;;;7.38;;
63203;SDS011;49297;43.210;27.914;2022-11-15T05:46:53;7.72;;;6.30;;
63203;SDS011;49297;43.210;27.914;2022-11-15T05:49:21;8.02;;;7.22;;
63203;SDS011;49297;43.210;27.914;2022-11-15T05:51:52;8.65;;;7.75;;
63203;SDS011;49297;43.210;27.914;2022-11-15T05:54:19;7.20;;;6.50;;
63203;SDS011;49297;43.210;27.914;2022-11-15T05:56:46;7.28;;;6.60;;
63203;SDS011;49297;43.210;27.914;2022-11-15T05:59:13;8.38;;;6.35;;
63203;SDS011;49297;43.210;27.914;2022-11-15T06:01:39;6.68;;;5.88;;
63203;SDS011;49297;43.210;27.914;2022-11-15T06:04:06;7.97;;;7.18;;
63203;SDS011;49297;43.210;27.914;2022-11-15T06:06:31;7.65;;;6.78;;
63203;SDS011;49297;43.210;27.914;2022-11-15T06:08:57;8.38;;;7.57;;
63203;SDS011;49297;43.210;27.914;2022-11-15T06:11:23;6.75;;;6.13;;
63203;SDS011;49297;43.210;27.914;2022-11-15T06:13:49;8.70;;;7.75;;
63203;SDS011;49297;43.210;27.914;2022-11-15T06:16:16;10.32;;;6.85;;
63203;SDS011;49297;43.210;27.914;2022-11-15T06:18:42;8.07;;;6.63;;
63203;SDS011;49297;43.210;27.914;2022-11-15T06:21:08;8.18;;;6.20;;
63203;SDS011;49297;43.210;27.914;2022-11-15T06:23:34;15.70;;;9.65;;
63203;SDS011;49297;43.210;27.914;2022-11-15T06:26:01;11.07;;;8.30;;
63203;SDS011;49297;43.210;27.914;2022-11-15T06:28:28;7.93;;;7.13;;
63203;SDS011;49297;43.210;27.914;2022-11-15T06:30:56;12.52;;;9.80;;
63203;SDS011;49297;43.210;27.914;2022-11-15T06:33:26;14.57;;;9.00;;
63203;SDS011;49297;43.210;27.914;2022-11-15T06:35:54;15.05;;;8.20;;
63203;SDS011;49297;43.210;27.914;2022-11-15T06:38:20;12.82;;;8.13;;
63203;SDS011;49297;43.210;27.914;2022-11-15T06:40:46;9.85;;;7.18;;
63203;SDS011;49297;43.210;27.914;2022-11-15T06:43:11;9.20;;;8.38;;
63203;SDS011;49297;43.210;27.914;2022-11-15T06:45:38;9.95;;;7.95;;
63203;SDS011;49297;43.210;27.914;2022-11-15T06:48:04;7.43;;;6.70;;
63203;SDS011;49297;43.210;27.914;2022-11-15T06:50:30;9.38;;;8.43;;
63203;SDS011;49297;43.210;27.914;2022-11-15T06:52:59;12.63;;;8.40;;
63203;SDS011;49297;43.210;27.914;2022-11-15T06:55:28;9.32;;;8.52;;
63203;SDS011;49297;43.210;27.914;2022-11-15T06:57:54;10.52;;;8.60;;
63203;SDS011;49297;43.210;27.914;2022-11-15T07:00:20;7.88;;;7.18;;
63203;SDS011;49297;43.210;27.914;2022-11-15T07:02:48;14.18;;;8.38;;
63203;SDS011;49297;43.210;27.914;2022-11-15T07:05:14;9.80;;;8.75;;
63203;SDS011;49297;43.210;27.914;2022-11-15T07:07:40;11.27;;;9.75;;
63203;SDS011;49297;43.210;27.914;2022-11-15T07:10:06;9.18;;;8.25;;
63203;SDS011;49297;43.210;27.914;2022-11-15T07:12:33;9.38;;;8.38;;
63203;SDS011;49297;43.210;27.914;2022-11-15T07:14:59;12.60;;;9.27;;
63203;SDS011;49297;43.210;27.914;2022-11-15T07:17:25;9.25;;;8.30;;
63203;SDS011;49297;43.210;27.914;2022-11-15T07:19:50;7.90;;;7.13;;
63203;SDS011;49297;43.210;27.914;2022-11-15T07:22:16;10.43;;;8.50;;
63203;SDS011;49297;43.210;27.914;2022-11-15T07:24:42;11.38;;;9.27;;
63203;SDS011;49297;43.210;27.914;2022-11-15T07:27:08;11.77;;;8.20;;
63203;SDS011;49297;43.210;27.914;2022-11-15T07:29:33;8.98;;;8.10;;
63203;SDS011;49297;43.210;27.914;2022-11-15T07:32:00;10.73;;;9.35;;
63203;SDS011;49297;43.210;27.914;2022-11-15T07:34:27;15.35;;;10.23;;
63203;SDS011;49297;43.210;27.914;2022-11-15T07:36:53;11.63;;;9.95;;
63203;SDS011;49297;43.210;27.914;2022-11-15T07:39:18;10.98;;;7.93;;
63203;SDS011;49297;43.210;27.914;2022-11-15T07:41:45;13.90;;;10.68;;
63203;SDS011;49297;43.210;27.914;2022-11-15T07:44:13;11.48;;;10.48;;
63203;SDS011;49297;43.210;27.914;2022-11-15T07:46:39;11.32;;;10.07;;
63203;SDS011;49297;43.210;27.914;2022-11-15T07:49:05;12.25;;;11.15;;
63203;SDS011;49297;43.210;27.914;2022-11-15T07:51:30;13.90;;;11.43;;
63203;SDS011;49297;43.210;27.914;2022-11-15T07:53:58;11.45;;;10.35;;
63203;SDS011;49297;43.210;27.914;2022-11-15T07:56:23;10.50;;;9.43;;
63203;SDS011;49297;43.210;27.914;2022-11-15T07:58:49;13.25;;;10.50;;
63203;SDS011;49297;43.210;27.914;2022-11-15T08:01:15;11.88;;;8.27;;
63203;SDS011;49297;43.210;27.914;2022-11-15T08:03:41;11.05;;;8.68;;
63203;SDS011;49297;43.210;27.914;2022-11-15T08:06:07;11.63;;;9.15;;
63203;SDS011;49297;43.210;27.914;2022-11-15T08:08:32;14.05;;;8.23;;
63203;SDS011;49297;43.210;27.914;2022-11-15T08:10:58;9.10;;;7.93;;
63203;SDS011;49297;43.210;27.914;2022-11-15T08:13:24;10.55;;;9.45;;
63203;SDS011;49297;43.210;27.914;2022-11-15T08:15:50;10.40;;;8.02;;
63203;SDS011;49297;43.210;27.914;2022-11-15T08:18:16;8.40;;;7.57;;
63203;SDS011;49297;43.210;27.914;2022-11-15T08:20:42;11.93;;;8.98;;
63203;SDS011;49297;43.210;27.914;2022-11-15T08:23:10;8.73;;;7.88;;
63203;SDS011;49297;43.210;27.914;2022-11-15T08:25:37;10.18;;;8.82;;
63203;SDS011;49297;43.210;27.914;2022-11-15T08:28:04;13.50;;;11.30;;
63203;SDS011;49297;43.210;27.914;2022-11-15T08:30:38;13.80;;;11.63;;
63203;SDS011;49297;43.210;27.914;2022-11-15T08:33:10;14.02;;;9.95;;
63203;SDS011;49297;43.210;27.914;2022-11-15T08:35:37;18.00;;;16.02;;
63203;SDS011;49297;43.210;27.914;2022-11-15T08:38:03;14.15;;;12.48;;
63203;SDS011;49297;43.210;27.914;2022-11-15T08:40:29;16.33;;;11.18;;
63203;SDS011;49297;43.210;27.914;2022-11-15T08:42:55;13.48;;;11.18;;
63203;SDS011;49297;43.210;27.914;2022-11-15T08:45:21;8.70;;;7.72;;
63203;SDS011;49297;43.210;27.914;2022-11-15T08:47:47;10.35;;;8.95;;
63203;SDS011;49297;43.210;27.914;2022-11-15T08:50:13;9.07;;;8.13;;
63203;SDS011;49297;43.210;27.914;2022-11-15T08:52:39;10.23;;;8.88;;
63203;SDS011;49297;43.210;27.914;2022-11-15T08:55:05;16.35;;;10.05;;
63203;SDS011;49297;43.210;27.914;2022-11-15T08:57:31;12.10;;;8.43;;
63203;SDS011;49297;43.210;27.914;2022-11-15T08:59:57;9.35;;;8.45;;
63203;SDS011;49297;43.210;27.914;2022-11-15T09:02:23;9.23;;;8.32;;
63203;SDS011;49297;43.210;27.914;2022-11-15T09:04:49;19.73;;;10.48;;
63203;SDS011;49297;43.210;27.914;2022-11-15T09:07:14;9.45;;;8.20;;
63203;SDS011;49297;43.210;27.914;2022-11-15T09:09:40;12.18;;;8.23;;
63203;SDS011;49297;43.210;27.914;2022-11-15T09:12:06;9.57;;;8.57;;
63203;SDS011;49297;43.210;27.914;2022-11-15T09:14:32;15.50;;;10.25;;
63203;SDS011;49297;43.210;27.914;2022-11-15T09:16:59;15.25;;;11.80;;
63203;SDS011;49297;43.210;27.914;2022-11-15T09:19:25;11.73;;;10.52;;
63203;SDS011;49297;43.210;27.914;2022-11-15T09:21:51;9.30;;;8.32;;
63203;SDS011;49297;43.210;27.914;2022-11-15T09:24:17;10.23;;;8.80;;
63203;SDS011;49297;43.210;27.914;2022-11-15T09:26:43;24.67;;;9.98;;
63203;SDS011;49297;43.210;27.914;2022-11-15T09:29:09;8.90;;;8.00;;
63203;SDS011;49297;43.210;27.914;2022-11-15T09:31:35;8.93;;;8.02;;
63203;SDS011;49297;43.210;27.914;2022-11-15T09:34:01;9.48;;;8.52;;
63203;SDS011;49297;43.210;27.914;2022-11-15T09:36:27;12.32;;;7.63;;
63203;SDS011;49297;43.210;27.914;2022-11-15T09:38:53;11.10;;;7.25;;
63203;SDS011;49297;43.210;27.914;2022-11-15T09:41:45;11.90;;;7.03;;
63203;SDS011;49297;43.210;27.914;2022-11-15T09:44:53;7.63;;;6.47;;
63203;SDS011;49297;43.210;27.914;2022-11-15T09:50:36;9.77;;;8.00;;
63203;SDS011;49297;43.210;27.914;2022-11-15T09:53:14;8.68;;;7.88;;
63203;SDS011;49297;43.210;27.914;2022-11-15T09:56:14;11.07;;;7.57;;
63203;SDS011;49297;43.210;27.914;2022-11-15T10:01:24;7.45;;;6.45;;
63203;SDS011;49297;43.210;27.914;2022-11-15T10:03:51;12.10;;;4.93;;
63203;SDS011;49297;43.210;27.914;2022-11-15T10:06:25;8.82;;;7.88;;
63203;SDS011;49297;43.210;27.914;2022-11-15T10:08:58;8.98;;;7.78;;
63203;SDS011;49297;43.210;27.914;2022-11-15T10:11:43;9.45;;;6.53;;
63203;SDS011;49297;43.210;27.914;2022-11-15T10:14:10;6.65;;;5.97;;
63203;SDS011;49297;43.210;27.914;2022-11-15T10:22:32;10.45;;;7.60;;
63203;SDS011;49297;43.210;27.914;2022-11-15T10:27:46;10.65;;;7.57;;
63203;SDS011;49297;43.210;27.914;2022-11-15T10:30:18;7.10;;;6.38;;
63203;SDS011;49297;43.210;27.914;2022-11-15T10:32:54;12.90;;;7.40;;
63203;SDS011;49297;43.210;27.914;2022-11-15T10:35:27;6.90;;;6.18;;
63203;SDS011;49297;43.210;27.914;2022-11-15T10:38:08;9.70;;;8.60;;
63203;SDS011;49297;43.210;27.914;2022-11-15T10:40:36;11.75;;;7.00;;
63203;SDS011;49297;43.210;27.914;2022-11-15T10:43:05;10.15;;;7.43;;
63203;SDS011;49297;43.210;27.914;2022-11-15T10:45:39;9.63;;;7.45;;
63203;SDS011;49297;43.210;27.914;2022-11-15T10:50:37;8.75;;;7.95;;
63203;SDS011;49297;43.210;27.914;2022-11-15T10:53:03;8.27;;;6.55;;
63203;SDS011;49297;43.210;27.914;2022-11-15T10:55:37;11.30;;;7.55;;
63203;SDS011;49297;43.210;27.914;2022-11-15T10:58:19;7.20;;;5.35;;
63203;SDS011;49297;43.210;27.914;2022-11-15T11:00:45;7.28;;;6.60;;
63203;SDS011;49297;43.210;27.914;2022-11-15T11:03:26;6.50;;;5.38;;
63203;SDS011;49297;43.210;27.914;2022-11-15T11:06:05;8.70;;;6.65;;
63203;SDS011;49297;43.210;27.914;2022-11-15T11:08:36;12.23;;;6.55;;
63203;SDS011;49297;43.210;27.914;2022-11-15T11:11:03;9.15;;;6.30;;
63203;SDS011;49297;43.210;27.914;2022-11-15T11:21:23;7.72;;;6.63;;
63203;SDS011;49297;43.210;27.914;2022-11-15T11:38:19;13.60;;;8.52;;
63203;SDS011;49297;43.210;27.914;2022-11-15T11:40:55;7.75;;;6.80;;
63203;SDS011;49297;43.210;27.914;2022-11-15T11:51:38;10.02;;;7.45;;
63203;SDS011;49297;43.210;27.914;2022-11-15T11:57:03;7.10;;;6.40;;
63203;SDS011;49297;43.210;27.914;2022-11-15T11:59:43;14.88;;;5.63;;
63203;SDS011;49297;43.210;27.914;2022-11-15T12:07:54;9.27;;;6.38;;
63203;SDS011;49297;43.210;27.914;2022-11-15T12:10:30;7.50;;;5.75;;
63203;SDS011;49297;43.210;27.914;2022-11-15T12:13:02;6.65;;;6.07;;
63203;SDS011;49297;43.210;27.914;2022-11-15T12:15:41;3.88;;;3.40;;
63203;SDS011;49297;43.210;27.914;2022-11-15T12:18:15;7.10;;;5.07;;
63203;SDS011;49297;43.210;27.914;2022-11-15T12:20:50;10.32;;;5.28;;
63203;SDS011;49297;43.210;27.914;2022-11-15T12:23:26;5.95;;;4.28;;
63203;SDS011;49297;43.210;27.914;2022-11-15T12:33:56;7.25;;;4.97;;
63203;SDS011;49297;43.210;27.914;2022-11-15T12:43:55;7.15;;;4.45;;
63203;SDS011;49297;43.210;27.914;2022-11-15T12:59:52;7.05;;;5.85;;
63203;SDS011;49297;43.210;27.914;2022-11-15T13:04:53;4.85;;;4.25;;
63203;SDS011;49297;43.210;27.914;2022-11-15T13:12:56;3.97;;;3.58;;
63203;SDS011;49297;43.210;27.914;2022-11-15T13:16:07;3.90;;;3.50;;
63203;SDS011;49297;43.210;27.914;2022-11-15T13:20:59;6.32;;;3.60;;
63203;SDS011;49297;43.210;27.914;2022-11-15T13:23:25;6.93;;;3.67;;
63203;SDS011;49297;43.210;27.914;2022-11-15T13:30:56;3.92;;;3.53;;
63203;SDS011;49297;43.210;27.914;2022-11-15T13:33:35;5.25;;;3.70;;
63203;SDS011;49297;43.210;27.914;2022-11-15T13:36:35;6.22;;;4.55;;
63203;SDS011;49297;43.210;27.914;2022-11-15T13:41:32;5.63;;;3.58;;
63203;SDS011;49297;43.210;27.914;2022-11-15T13:44:00;7.13;;;4.50;;
63203;SDS011;49297;43.210;27.914;2022-11-15T13:46:28;5.93;;;4.50;;
63203;SDS011;49297;43.210;27.914;2022-11-15T13:48:59;5.03;;;4.03;;
63203;SDS011;49297;43.210;27.914;2022-11-15T13:56:37;5.25;;;4.75;;
63203;SDS011;49297;43.210;27.914;2022-11-15T13:59:10;7.68;;;4.28;;
63203;SDS011;49297;43.210;27.914;2022-11-15T14:01:42;4.40;;;3.97;;
63203;SDS011;49297;43.210;27.914;2022-11-15T14:04:13;6.30;;;4.72;;
63203;SDS011;49297;43.210;27.914;2022-11-15T14:06:44;10.15;;;4.13;;
63203;SDS011;49297;43.210;27.914;2022-11-15T14:11:55;5.93;;;3.58;;
63203;SDS011;49297;43.210;27.914;2022-11-15T14:14:22;5.25;;;3.80;;
63203;SDS011;49297;43.210;27.914;2022-11-15T14:16:51;7.47;;;4.20;;
63203;SDS011;49297;43.210;27.914;2022-11-15T14:24:41;9.60;;;5.15;;
63203;SDS011;49297;43.210;27.914;2022-11-15T14:27:25;7.15;;;5.47;;
63203;SDS011;49297;43.210;27.914;2022-11-15T14:29:52;6.60;;;4.95;;
63203;SDS011;49297;43.210;27.914;2022-11-15T14:32:20;4.35;;;3.95;;
63203;SDS011;49297;43.210;27.914;2022-11-15T14:34:54;4.90;;;3.53;;
63203;SDS011;49297;43.210;27.914;2022-11-15T14:39:56;5.80;;;4.78;;
63203;SDS011;49297;43.210;27.914;2022-11-15T14:42:22;6.15;;;4.45;;
63203;SDS011;49297;43.210;27.914;2022-11-15T14:44:49;9.15;;;3.85;;
63203;SDS011;49297;43.210;27.914;2022-11-15T14:47:15;14.23;;;6.50;;
63203;SDS011;49297;43.210;27.914;2022-11-15T14:49:41;9.05;;;5.18;;
63203;SDS011;49297;43.210;27.914;2022-11-15T14:54:50;7.22;;;5.55;;
63203;SDS011;49297;43.210;27.914;2022-11-15T14:57:16;5.30;;;4.80;;
63203;SDS011;49297;43.210;27.914;2022-11-15T14:59:42;9.18;;;6.97;;
63203;SDS011;49297;43.210;27.914;2022-11-15T15:02:24;11.80;;;6.28;;
63203;SDS011;49297;43.210;27.914;2022-11-15T15:04:53;9.05;;;6.10;;
63203;SDS011;49297;43.210;27.914;2022-11-15T15:07:19;6.68;;;4.95;;
63203;SDS011;49297;43.210;27.914;2022-11-15T15:09:45;8.18;;;5.57;;
63203;SDS011;49297;43.210;27.914;2022-11-15T15:12:15;9.18;;;6.93;;
63203;SDS011;49297;43.210;27.914;2022-11-15T15:14:44;6.63;;;5.72;;
63203;SDS011;49297;43.210;27.914;2022-11-15T15:17:10;5.78;;;5.25;;
63203;SDS011;49297;43.210;27.914;2022-11-15T15:19:36;6.10;;;5.25;;
63203;SDS011;49297;43.210;27.914;2022-11-15T15:22:02;8.13;;;5.47;;
63203;SDS011;49297;43.210;27.914;2022-11-15T15:24:27;8.43;;;6.50;;
63203;SDS011;49297;43.210;27.914;2022-11-15T15:26:53;7.00;;;6.28;;
63203;SDS011;49297;43.210;27.914;2022-11-15T15:29:19;8.80;;;7.75;;
63203;SDS011;49297;43.210;27.914;2022-11-15T15:31:45;9.82;;;6.72;;
63203;SDS011;49297;43.210;27.914;2022-11-15T15:34:11;6.97;;;5.88;;
63203;SDS011;49297;43.210;27.914;2022-11-15T15:36:37;9.40;;;7.03;;
63203;SDS011;49297;43.210;27.914;2022-11-15T15:39:02;6.75;;;6.00;;
63203;SDS011;49297;43.210;27.914;2022-11-15T15:41:28;7.65;;;6.90;;
63203;SDS011;49297;43.210;27.914;2022-11-15T15:43:54;14.77;;;7.07;;
63203;SDS011;49297;43.210;27.914;2022-11-15T15:46:20;8.45;;;7.55;;
63203;SDS011;49297;43.210;27.914;2022-11-15T15:48:46;9.45;;;7.88;;
63203;SDS011;49297;43.210;27.914;2022-11-15T15:51:12;8.85;;;6.75;;
63203;SDS011;49297;43.210;27.914;2022-11-15T15:53:38;8.25;;;7.00;;
63203;SDS011;49297;43.210;27.914;2022-11-15T15:56:04;7.82;;;7.03;;
63203;SDS011;49297;43.210;27.914;2022-11-15T15:58:33;8.13;;;7.35;;
63203;SDS011;49297;43.210;27.914;2022-11-15T16:00:59;10.52;;;7.05;;
63203;SDS011;49297;43.210;27.914;2022-11-15T16:03:25;9.02;;;8.13;;
63203;SDS011;49297;43.210;27.914;2022-11-15T16:05:52;7.82;;;7.10;;
63203;SDS011;49297;43.210;27.914;2022-11-15T16:08:20;10.88;;;8.00;;
63203;SDS011;49297;43.210;27.914;2022-11-15T16:10:47;7.65;;;6.63;;
63203;SDS011;49297;43.210;27.914;2022-11-15T16:13:14;7.07;;;6.47;;
63203;SDS011;49297;43.210;27.914;2022-11-15T16:15:40;8.13;;;7.15;;
63203;SDS011;49297;43.210;27.914;2022-11-15T16:18:08;7.50;;;6.80;;
63203;SDS011;49297;43.210;27.914;2022-11-15T16:23:10;8.27;;;7.47;;
63203;SDS011;49297;43.210;27.914;2022-11-15T16:25:42;8.25;;;7.45;;
63203;SDS011;49297;43.210;27.914;2022-11-15T16:30:42;10.70;;;8.70;;
63203;SDS011;49297;43.210;27.914;2022-11-15T16:33:08;9.77;;;8.98;;
63203;SDS011;49297;43.210;27.914;2022-11-15T16:35:34;10.90;;;9.30;;
63203;SDS011;49297;43.210;27.914;2022-11-15T16:37:59;9.88;;;8.82;;
63203;SDS011;49297;43.210;27.914;2022-11-15T16:40:26;20.02;;;9.68;;
63203;SDS011;49297;43.210;27.914;2022-11-15T16:42:57;11.07;;;8.38;;
63203;SDS011;49297;43.210;27.914;2022-11-15T16:45:24;14.07;;;7.70;;
63203;SDS011;49297;43.210;27.914;2022-11-15T16:47:55;9.02;;;8.07;;
63203;SDS011;49297;43.210;27.914;2022-11-15T16:50:22;8.32;;;7.53;;
63203;SDS011;49297;43.210;27.914;2022-11-15T16:52:51;10.18;;;9.15;;
63203;SDS011;49297;43.210;27.914;2022-11-15T16:55:21;22.95;;;10.20;;
63203;SDS011;49297;43.210;27.914;2022-11-15T16:57:50;13.68;;;9.82;;
63203;SDS011;49297;43.210;27.914;2022-11-15T17:00:16;9.13;;;8.32;;
63203;SDS011;49297;43.210;27.914;2022-11-15T17:02:44;9.77;;;7.90;;
63203;SDS011;49297;43.210;27.914;2022-11-15T17:05:11;8.45;;;7.75;;
63203;SDS011;49297;43.210;27.914;2022-11-15T17:07:38;9.38;;;8.40;;
63203;SDS011;49297;43.210;27.914;2022-11-15T17:10:04;10.02;;;8.65;;
63203;SDS011;49297;43.210;27.914;2022-11-15T17:12:32;9.48;;;8.50;;
63203;SDS011;49297;43.210;27.914;2022-11-15T17:14:59;9.98;;;8.93;;
63203;SDS011;49297;43.210;27.914;2022-11-15T17:17:25;10.52;;;9.35;;
63203;SDS011;49297;43.210;27.914;2022-11-15T17:19:52;12.95;;;10.57;;
63203;SDS011;49297;43.210;27.914;2022-11-15T17:22:18;13.45;;;11.98;;
63203;SDS011;49297;43.210;27.914;2022-11-15T17:24:44;10.98;;;9.88;;
63203;SDS011;49297;43.210;27.914;2022-11-15T17:27:10;15.05;;;11.65;;
63203;SDS011;49297;43.210;27.914;2022-11-15T17:29:36;11.57;;;10.55;;
63203;SDS011;49297;43.210;27.914;2022-11-15T17:32:02;13.57;;;11.50;;